Time;durP1;ratioP1;P1;durP2;ratioP2;P2;SDS_P1;SDS_P2;PMS_P1;PMS_P2;Temp;Humidity;BMP_temperature;BMP_pressure;BME280_temperature;BME280_humidity;BME280_pressure;Samples;Min_cycle;Max_cycle;Signal;HPM_P1;HPM_P2
2022/01/23 00:01:35;;;;;;;;;;;;;;;25.49;24.65;102123.84;4994025;28;1004;-72
2022/01/23 00:04:01;;;;;;;;;;;;;;;26.05;24.07;102133.66;4994806;28;864;-70
2022/01/23 00:06:29;;;;;;;;;;;;;;;26.34;23.60;102134.66;4994178;28;1301;-70
2022/01/23 00:08:56;;;;;;;;;;;;;;;26.51;23.30;102133.34;4993028;28;1922;-71
2022/01/23 00:11:26;;;;;;;;;;;;;;;25.64;24.32;102137.78;4994834;28;978;-72
2022/01/23 00:19:23;;;;;;;;;;;;;;;25.86;24.05;102116.47;4968780;28;1182;-72
2022/01/23 00:21:53;;;;;;;;;;;;;;;25.67;24.55;102125.38;4994375;28;793;-72
2022/01/23 00:32:31;;;;;;;;;;;;;;;25.48;24.84;102122.13;4993191;28;968;-72
2022/01/23 00:34:57;;;;;;;;;;;;;;;25.69;24.59;102134.41;4992464;28;1281;-72
2022/01/23 00:37:25;;;;;;;;;;;;;;;25.82;24.64;102129.03;4992703;28;793;-73
2022/01/23 00:39:51;;;;;;;;;;;;;;;26.24;23.96;102129.38;4992490;28;1002;-71
2022/01/23 00:42:18;;;;;;;;;;;;;;;26.32;23.82;102128.41;4992481;28;983;-73
2022/01/23 00:44:47;;;;;;;;;;;;;;;26.44;23.70;102135.19;4992261;28;797;-71
2022/01/23 00:47:15;;;;;;;;;;;;;;;26.16;24.14;102123.94;4992570;28;1968;-73
2022/01/23 00:49:41;;;;;;;;;;;;;;;26.07;24.38;102125.97;4993786;28;769;-71
2022/01/23 00:52:07;;;;;;;;;;;;;;;26.40;23.76;102119.94;4993586;28;994;-72
2022/01/23 00:54:35;;;;;;;;;;;;;;;25.59;25.11;102122.69;4993346;28;1037;-71
2022/01/23 00:57:01;;;;;;;;;;;;;;;26.18;24.19;102117.13;4993230;28;1290;-73
2022/01/23 00:59:28;;;;;;;;;;;;;;;25.51;25.51;102113.41;4992945;28;713;-74
2022/01/23 01:01:54;;;;;;;;;;;;;;;25.35;25.37;102108.03;4992354;28;963;-72
2022/01/23 01:04:20;;;;;;;;;;;;;;;25.60;25.46;102100.25;4993506;28;887;-73
2022/01/23 01:06:47;;;;;;;;;;;;;;;25.30;26.00;102105.78;4992114;28;1403;-73
2022/01/23 01:09:14;;;;;;;;;;;;;;;26.09;24.90;102103.53;4991983;28;1993;-72
2022/01/23 01:12:01;;;;;;;;;;;;;;;25.76;25.29;102106.69;4994358;28;1030;-73
2022/01/23 01:14:40;;;;;;;;;;;;;;;25.97;24.84;102120.66;4991537;28;890;-71
2022/01/23 01:17:13;;;;;;;;;;;;;;;25.66;25.49;102126.47;4992157;28;1376;-71
2022/01/23 01:30:58;;;;;;;;;;;;;;;26.06;25.02;102146.50;4991922;28;710;-73
2022/01/23 01:33:35;;;;;;;;;;;;;;;25.31;26.21;102137.19;4991542;28;1050;-73
2022/01/23 01:36:13;;;;;;;;;;;;;;;25.69;25.58;102145.53;4991192;28;1383;-71
2022/01/23 01:38:39;;;;;;;;;;;;;;;25.61;26.07;102143.69;4975457;28;1213;-73
2022/01/23 01:41:05;;;;;;;;;;;;;;;25.55;26.66;102139.75;4991601;28;970;-73
2022/01/23 01:43:35;;;;;;;;;;;;;;;25.65;26.33;102133.06;4990982;28;955;-74
2022/01/23 01:46:01;;;;;;;;;;;;;;;25.65;26.02;102130.28;5003882;28;1603;-73
2022/01/23 01:48:50;;;;;;;;;;;;;;;25.07;26.98;102120.56;4987105;28;1910;-72
2022/01/23 01:51:18;;;;;;;;;;;;;;;24.97;27.52;102127.44;4991277;28;1043;-73
2022/01/23 01:53:53;;;;;;;;;;;;;;;25.62;26.64;102125.13;4991462;28;1329;-72
2022/01/23 01:56:20;;;;;;;;;;;;;;;26.05;26.00;102123.38;4991167;28;1342;-71
2022/01/23 01:59:13;;;;;;;;;;;;;;;26.19;25.56;102123.53;4991373;28;1456;-72
2022/01/23 02:10:16;;;;;;;;;;;;;;;26.93;24.80;102125.22;4991020;28;625;-72
2022/01/23 02:15:48;;;;;;;;;;;;;;;26.32;25.69;102120.06;4980672;28;1361;-71
2022/01/23 02:18:29;;;;;;;;;;;;;;;26.82;25.30;102123.84;4990733;28;1192;-72
2022/01/23 02:24:08;;;;;;;;;;;;;;;26.98;24.84;102121.84;4990808;28;979;-74
2022/01/23 02:51:36;;;;;;;;;;;;;;;26.29;25.70;102140.78;4990776;28;991;-73
2022/01/23 02:54:21;;;;;;;;;;;;;;;26.68;25.51;102133.09;4991796;28;999;-73
2022/01/23 02:56:51;;;;;;;;;;;;;;;26.55;25.49;102133.81;4990410;28;1287;-71
2022/01/23 02:59:23;;;;;;;;;;;;;;;26.93;25.07;102138.31;4990261;28;868;-73
2022/01/23 03:02:02;;;;;;;;;;;;;;;26.44;25.72;102143.53;4990432;28;1045;-73
2022/01/23 03:05:01;;;;;;;;;;;;;;;26.16;26.16;102146.19;4989925;28;1398;-72
2022/01/23 03:07:54;;;;;;;;;;;;;;;26.18;26.34;102150.50;4990298;28;1987;-72
2022/01/23 03:10:25;;;;;;;;;;;;;;;26.04;26.25;102151.38;4990006;28;1363;-73
2022/01/23 03:13:36;;;;;;;;;;;;;;;26.09;26.37;102146.09;4990317;28;915;-72
2022/01/23 03:16:16;;;;;;;;;;;;;;;25.81;26.43;102159.81;4989512;28;1342;-72
2022/01/23 03:24:23;;;;;;;;;;;;;;;26.04;25.86;102154.16;4989845;28;1015;-71
2022/01/23 03:26:59;;;;;;;;;;;;;;;26.92;25.15;102143.00;4989868;28;1384;-72
2022/01/23 03:29:27;;;;;;;;;;;;;;;26.78;25.29;102139.25;4991923;28;1918;-72
2022/01/23 03:32:12;;;;;;;;;;;;;;;27.16;24.60;102144.50;4994120;28;716;-71
2022/01/23 03:34:38;;;;;;;;;;;;;;;26.75;25.07;102136.88;4995027;28;979;-73
2022/01/23 03:37:04;;;;;;;;;;;;;;;27.53;24.15;102131.31;4993975;28;1291;-72
2022/01/23 03:39:31;;;;;;;;;;;;;;;27.05;24.92;102131.97;4993954;28;753;-72
2022/01/23 03:41:58;;;;;;;;;;;;;;;26.61;25.28;102134.97;4993634;28;864;-71
2022/01/23 03:44:25;;;;;;;;;;;;;;;26.48;25.56;102150.44;4994070;28;995;-70
2022/01/23 03:47:14;;;;;;;;;;;;;;;26.25;25.99;102146.97;4993975;28;1392;-72
2022/01/23 03:49:39;;;;;;;;;;;;;;;26.46;25.45;102147.00;4993970;28;1973;-70
2022/01/23 03:52:17;;;;;;;;;;;;;;;27.08;24.88;102139.06;5004233;28;2204;-72
2022/01/23 03:54:45;;;;;;;;;;;;;;;26.66;25.46;102152.78;5004874;28;1150;-73
2022/01/23 03:57:12;;;;;;;;;;;;;;;27.20;25.01;102151.38;5011197;28;1314;-72
2022/01/23 03:59:39;;;;;;;;;;;;;;;27.42;24.42;102154.19;5013326;28;817;-72
2022/01/23 04:02:08;;;;;;;;;;;;;;;26.74;25.07;102165.75;5009832;28;1014;-72
2022/01/23 04:04:41;;;;;;;;;;;;;;;26.75;25.16;102167.50;4994472;28;788;-71
2022/01/23 04:07:12;;;;;;;;;;;;;;;27.27;24.58;102170.97;5009552;28;1487;-71
2022/01/23 04:09:40;;;;;;;;;;;;;;;27.39;24.64;102160.16;5009517;28;1910;-73
2022/01/23 04:12:09;;;;;;;;;;;;;;;26.28;25.68;102172.47;5009762;28;951;-71
2022/01/23 04:14:44;;;;;;;;;;;;;;;26.96;24.94;102163.81;4993583;28;975;-74
2022/01/23 04:33:46;;;;;;;;;;;;;;;26.26;25.75;102154.22;4976950;28;1003;-71
2022/01/23 05:01:03;;;;;;;;;;;;;;;26.91;25.29;102191.41;4994003;28;903;-72
2022/01/23 05:04:05;;;;;;;;;;;;;;;26.84;25.27;102194.13;5009331;28;1062;-71
2022/01/23 05:07:01;;;;;;;;;;;;;;;26.01;26.31;102187.91;4994575;28;1444;-71
2022/01/23 05:09:57;;;;;;;;;;;;;;;26.80;25.75;102189.16;4992271;28;1938;-72
2022/01/23 05:12:33;;;;;;;;;;;;;;;26.85;25.39;102197.78;5008863;28;1167;-70
2022/01/23 05:15:00;;;;;;;;;;;;;;;26.84;25.39;102194.13;5008368;28;1305;-72
2022/01/23 05:17:26;;;;;;;;;;;;;;;26.90;25.34;102195.28;4993604;28;966;-73
2022/01/23 05:19:54;;;;;;;;;;;;;;;27.01;25.25;102193.88;4992586;28;1152;-73
2022/01/23 05:22:27;;;;;;;;;;;;;;;27.49;24.54;102198.84;4993581;28;1082;-72
2022/01/23 05:24:56;;;;;;;;;;;;;;;25.95;26.71;102211.81;5007999;28;800;-72
2022/01/23 05:27:23;;;;;;;;;;;;;;;27.52;24.70;102206.81;5007866;28;911;-71
2022/01/23 05:29:50;;;;;;;;;;;;;;;27.12;24.76;102207.28;5008171;28;1914;-72
2022/01/23 05:32:16;;;;;;;;;;;;;;;27.27;24.91;102207.19;4993193;28;1034;-72
2022/01/23 05:34:44;;;;;;;;;;;;;;;27.29;24.92;102216.22;5007725;28;888;-73
2022/01/23 05:37:17;;;;;;;;;;;;;;;27.32;24.70;102210.25;4991444;28;1377;-72
2022/01/23 05:39:46;;;;;;;;;;;;;;;26.83;25.38;102211.03;4991715;28;916;-71
2022/01/23 05:42:12;;;;;;;;;;;;;;;27.16;24.77;102208.59;5007958;28;944;-70
2022/01/23 05:44:40;;;;;;;;;;;;;;;27.59;24.71;102215.22;4991382;28;1204;-73
2022/01/23 05:47:09;;;;;;;;;;;;;;;27.41;24.68;102211.00;4991279;28;1374;-70
2022/01/23 05:50:05;;;;;;;;;;;;;;;26.82;24.93;102218.53;5002908;28;1914;-73
2022/01/23 05:52:39;;;;;;;;;;;;;;;27.77;24.08;102214.69;4992005;28;978;-72
2022/01/23 05:55:26;;;;;;;;;;;;;;;26.78;25.21;102211.66;4992235;28;1382;-72
2022/01/23 05:58:00;;;;;;;;;;;;;;;27.50;24.51;102220.94;4992925;28;1033;-72
2022/01/23 06:00:39;;;;;;;;;;;;;;;27.19;24.74;102219.38;4991427;28;999;-70
2022/01/23 06:03:10;;;;;;;;;;;;;;;27.36;24.76;102233.84;5007864;28;617;-69
2022/01/23 06:05:50;;;;;;;;;;;;;;;27.45;24.73;102237.41;4990524;28;1306;-70
2022/01/23 06:08:23;;;;;;;;;;;;;;;27.40;24.72;102238.00;4991193;28;1906;-73
2022/01/23 06:10:56;;;;;;;;;;;;;;;27.41;24.86;102236.09;4991159;28;995;-71
2022/01/23 06:13:32;;;;;;;;;;;;;;;26.78;25.45;102239.50;4991110;28;1011;-71
2022/01/23 06:15:59;;;;;;;;;;;;;;;27.58;24.63;102235.78;4990625;28;1429;-72
2022/01/23 06:18:27;;;;;;;;;;;;;;;27.66;24.62;102244.88;4991042;28;947;-72
2022/01/23 06:21:16;;;;;;;;;;;;;;;27.20;24.93;102248.94;4992033;28;828;-71
2022/01/23 06:24:14;;;;;;;;;;;;;;;27.46;24.79;102249.41;4990791;28;809;-70
2022/01/23 06:27:00;;;;;;;;;;;;;;;27.79;24.37;102246.91;4991907;28;1324;-72
2022/01/23 06:29:30;;;;;;;;;;;;;;;27.21;25.18;102249.81;5007278;28;1985;-70
2022/01/23 06:31:58;;;;;;;;;;;;;;;27.51;24.83;102255.25;4991932;28;1002;-73
2022/01/23 06:34:26;;;;;;;;;;;;;;;26.94;25.26;102260.69;4990579;28;982;-71
2022/01/23 06:36:54;;;;;;;;;;;;;;;27.68;24.51;102247.47;4990763;28;1398;-71
2022/01/23 06:39:24;;;;;;;;;;;;;;;27.16;25.41;102239.25;4990964;28;967;-72
2022/01/23 06:41:55;;;;;;;;;;;;;;;27.13;25.27;102244.38;4990307;28;1090;-70
2022/01/23 06:44:41;;;;;;;;;;;;;;;26.63;25.98;102247.84;4988813;28;1168;-72
2022/01/23 06:47:12;;;;;;;;;;;;;;;27.36;24.99;102238.59;4990837;28;1467;-71
2022/01/23 06:49:39;;;;;;;;;;;;;;;26.98;25.32;102248.06;5000542;28;2052;-72
2022/01/23 06:52:06;;;;;;;;;;;;;;;26.68;25.94;102247.25;4990230;28;710;-71
2022/01/23 06:54:36;;;;;;;;;;;;;;;26.48;25.94;102249.78;4990410;28;1630;-72
2022/01/23 06:57:03;;;;;;;;;;;;;;;27.12;25.39;102246.28;4989769;28;1429;-71
2022/01/23 06:59:30;;;;;;;;;;;;;;;26.81;25.34;102254.97;5003481;28;1529;-72
2022/01/23 07:02:24;;;;;;;;;;;;;;;27.19;25.32;102254.72;4990412;28;991;-70
2022/01/23 07:05:16;;;;;;;;;;;;;;;27.98;24.22;102253.72;5003928;28;1430;-71
2022/01/23 07:07:53;;;;;;;;;;;;;;;27.09;25.34;102257.84;5005659;28;1471;-71
2022/01/23 07:10:44;;;;;;;;;;;;;;;27.00;25.54;102259.88;4991471;28;1914;-72
2022/01/23 07:13:24;;;;;;;;;;;;;;;26.73;25.71;102259.56;4990179;28;1030;-71
2022/01/23 07:16:06;;;;;;;;;;;;;;;26.12;26.30;102262.56;4976787;28;1487;-71
2022/01/23 07:18:55;;;;;;;;;;;;;;;26.94;25.58;102282.06;5010314;28;1470;-72
2022/01/23 07:21:23;;;;;;;;;;;;;;;26.99;25.22;102280.47;5009612;28;878;-72
2022/01/23 07:23:51;;;;;;;;;;;;;;;27.31;25.12;102288.50;4996866;28;1581;-72
2022/01/23 07:26:22;;;;;;;;;;;;;;;27.26;25.11;102280.75;5004869;28;1712;-70
2022/01/23 07:28:55;;;;;;;;;;;;;;;27.15;25.25;102298.84;4989736;28;1970;-70
2022/01/23 07:31:42;;;;;;;;;;;;;;;27.67;24.76;102290.34;4991452;28;2270;-72
2022/01/23 07:34:11;;;;;;;;;;;;;;;27.73;24.62;102293.22;5008843;28;1540;-71
2022/01/23 07:36:38;;;;;;;;;;;;;;;27.86;24.48;102295.25;4974481;28;1656;-73
2022/01/23 07:39:22;;;;;;;;;;;;;;;27.79;24.51;102299.03;4981258;28;1782;-72
2022/01/23 07:41:51;;;;;;;;;;;;;;;27.87;24.65;102298.88;4989820;28;927;-72
2022/01/23 07:44:29;;;;;;;;;;;;;;;27.85;24.34;102304.69;5000108;28;1576;-72
2022/01/23 07:47:16;;;;;;;;;;;;;;;27.48;24.94;102300.28;4970080;28;1299;-71
2022/01/23 07:50:03;;;;;;;;;;;;;;;27.41;25.17;102311.38;5008246;28;1914;-72
2022/01/23 07:52:45;;;;;;;;;;;;;;;27.32;25.17;102315.31;4986333;28;1482;-73
2022/01/23 07:55:20;;;;;;;;;;;;;;;27.76;24.81;102308.69;4997696;28;1462;-70
2022/01/23 07:58:15;;;;;;;;;;;;;;;27.67;24.70;102310.75;5010784;28;1434;-72
2022/01/23 08:01:01;;;;;;;;;;;;;;;27.54;25.14;102317.06;4999537;28;1506;-71
2022/01/23 08:03:28;;;;;;;;;;;;;;;27.75;24.71;102306.94;4989669;28;1003;-72
2022/01/23 08:06:11;;;;;;;;;;;;;;;27.56;24.90;102314.06;4998273;28;1521;-71
2022/01/23 08:08:40;;;;;;;;;;;;;;;26.53;26.01;102320.53;4990676;28;903;-72
2022/01/23 08:11:09;;;;;;;;;;;;;;;26.56;26.32;102322.94;4999896;28;1987;-72
2022/01/23 08:13:36;;;;;;;;;;;;;;;27.12;25.56;102324.31;4993240;28;1530;-73
2022/01/23 08:16:03;;;;;;;;;;;;;;;28.09;24.79;102323.97;5007359;28;1482;-74
2022/01/23 08:18:29;;;;;;;;;;;;;;;27.69;25.44;102330.94;5014607;28;681;-73
2022/01/23 08:20:55;;;;;;;;;;;;;;;27.47;25.50;102335.66;5010940;28;1600;-73
2022/01/23 08:23:22;;;;;;;;;;;;;;;27.87;25.16;102333.25;4996196;28;1536;-73
2022/01/23 08:25:48;;;;;;;;;;;;;;;27.48;25.71;102340.16;5006090;28;1518;-72
2022/01/23 08:28:15;;;;;;;;;;;;;;;28.07;24.87;102340.94;5000125;28;1510;-72
2022/01/23 08:30:42;;;;;;;;;;;;;;;28.51;24.53;102341.66;5011380;28;1918;-72
2022/01/23 08:33:09;;;;;;;;;;;;;;;28.40;24.82;102343.09;5005872;28;1589;-72
2022/01/23 08:35:35;;;;;;;;;;;;;;;27.76;25.11;102352.47;5010774;28;1434;-72
2022/01/23 08:38:02;;;;;;;;;;;;;;;28.23;24.68;102340.66;4997080;28;1572;-73
2022/01/23 08:40:47;;;;;;;;;;;;;;;27.44;25.99;102344.41;5009776;28;1537;-72
2022/01/23 08:43:15;;;;;;;;;;;;;;;28.72;24.64;102351.91;5009239;28;1513;-74
2022/01/23 08:45:43;;;;;;;;;;;;;;;28.25;24.74;102348.81;4995564;28;1498;-73
2022/01/23 08:48:09;;;;;;;;;;;;;;;28.34;24.69;102353.16;4997631;28;1526;-73
2022/01/23 08:50:36;;;;;;;;;;;;;;;26.90;26.30;102348.47;5003330;28;1914;-71
2022/01/23 08:53:02;;;;;;;;;;;;;;;27.78;25.52;102345.63;5012098;28;1431;-74
2022/01/23 08:55:29;;;;;;;;;;;;;;;27.96;25.38;102342.31;5007226;28;1605;-74
2022/01/23 08:57:55;;;;;;;;;;;;;;;27.83;25.45;102347.78;4996719;28;1356;-73
2022/01/23 09:00:22;;;;;;;;;;;;;;;28.06;24.95;102347.56;4994222;28;844;-74
2022/01/23 09:02:49;;;;;;;;;;;;;;;27.93;25.29;102364.16;5003457;28;1517;-74
2022/01/23 09:05:15;;;;;;;;;;;;;;;28.48;24.72;102367.22;5012503;28;1344;-74
2022/01/23 09:07:42;;;;;;;;;;;;;;;28.76;24.11;102358.81;5009650;28;1498;-74
2022/01/23 09:10:09;;;;;;;;;;;;;;;27.69;25.42;102363.56;5008289;28;1914;-74
2022/01/23 09:12:54;;;;;;;;;;;;;;;27.34;26.19;102361.44;5009389;28;1549;-72
2022/01/23 09:15:21;;;;;;;;;;;;;;;28.25;25.13;102361.88;4994301;28;1443;-74
2022/01/23 09:17:47;;;;;;;;;;;;;;;28.43;24.89;102359.44;4996249;28;1558;-74
2022/01/23 09:20:15;;;;;;;;;;;;;;;28.58;24.47;102358.47;5012880;28;1002;-75
2022/01/23 09:22:41;;;;;;;;;;;;;;;28.14;24.68;102352.16;5010496;28;1569;-75
2022/01/23 09:25:08;;;;;;;;;;;;;;;27.75;25.27;102368.31;5011939;28;1562;-75
2022/01/23 09:27:34;;;;;;;;;;;;;;;27.45;26.30;102378.75;5011756;28;915;-75
2022/01/23 09:30:06;;;;;;;;;;;;;;;27.98;25.57;102383.97;4993582;28;1918;-75
2022/01/23 09:32:32;;;;;;;;;;;;;;;27.41;26.38;102381.06;4993240;28;1561;-75
2022/01/23 09:34:59;;;;;;;;;;;;;;;27.95;25.71;102376.00;4999617;28;1580;-74
2022/01/23 09:37:27;;;;;;;;;;;;;;;28.45;25.07;102368.50;4999092;28;1563;-73
2022/01/23 09:39:53;;;;;;;;;;;;;;;27.20;26.67;102379.91;5008011;28;1685;-74
2022/01/23 09:42:22;;;;;;;;;;;;;;;27.49;26.61;102380.06;5008607;28;1481;-74
2022/01/23 09:44:50;;;;;;;;;;;;;;;27.97;25.40;102387.84;4992653;28;984;-74
2022/01/23 09:47:19;;;;;;;;;;;;;;;26.56;26.76;102380.53;4992719;28;1688;-73
2022/01/23 09:49:45;;;;;;;;;;;;;;;26.69;26.92;102385.44;4995573;28;2374;-73
2022/01/23 09:52:13;;;;;;;;;;;;;;;27.61;25.73;102378.47;5009809;28;1991;-73
2022/01/23 09:54:41;;;;;;;;;;;;;;;28.16;25.21;102378.78;4990064;28;1255;-71
2022/01/23 09:57:08;;;;;;;;;;;;;;;28.20;25.37;102377.31;5004165;28;1475;-73
2022/01/23 09:59:35;;;;;;;;;;;;;;;27.04;26.30;102394.09;5010952;28;1434;-74
2022/01/23 10:02:03;;;;;;;;;;;;;;;27.37;26.23;102385.31;5012297;28;1030;-74
2022/01/23 10:04:30;;;;;;;;;;;;;;;27.33;26.29;102390.38;4999464;28;1542;-72
2022/01/23 10:06:56;;;;;;;;;;;;;;;26.73;27.28;102379.31;5003248;28;1454;-74
2022/01/23 10:09:24;;;;;;;;;;;;;;;27.65;25.98;102387.31;5012190;28;737;-74
2022/01/23 10:11:51;;;;;;;;;;;;;;;27.82;26.04;102383.19;5012417;28;1922;-73
2022/01/23 10:14:19;;;;;;;;;;;;;;;28.62;24.50;102388.56;5010754;28;1002;-75
2022/01/23 10:16:45;;;;;;;;;;;;;;;29.73;23.49;102381.94;5011490;28;1306;-71
2022/01/23 10:19:12;;;;;;;;;;;;;;;28.27;24.99;102382.09;5011055;28;876;-74
2022/01/23 10:21:39;;;;;;;;;;;;;;;29.10;24.06;102384.94;5010950;28;915;-74
2022/01/23 10:24:06;;;;;;;;;;;;;;;29.02;24.30;102379.56;5011697;28;1053;-74
2022/01/23 10:26:40;;;;;;;;;;;;;;;29.35;23.72;102378.84;5010448;28;1356;-73
2022/01/23 10:29:15;;;;;;;;;;;;;;;28.61;24.46;102372.00;5010458;28;1010;-74
2022/01/23 10:31:56;;;;;;;;;;;;;;;27.59;25.22;102375.00;5010648;28;1930;-73
2022/01/23 10:34:39;;;;;;;;;;;;;;;28.16;25.03;102378.78;5010358;28;1926;-72
2022/01/23 10:37:05;;;;;;;;;;;;;;;28.78;24.30;102378.16;4990349;28;1489;-75
2022/01/23 10:39:39;;;;;;;;;;;;;;;27.51;25.75;102384.41;4992885;28;1564;-74
2022/01/23 10:42:24;;;;;;;;;;;;;;;27.74;25.43;102377.75;4991949;28;845;-74
2022/01/23 10:47:47;;;;;;;;;;;;;;;28.45;25.13;102374.06;4991655;28;1046;-73
2022/01/23 10:50:13;;;;;;;;;;;;;;;29.04;24.17;102380.22;4995859;28;1985;-73
2022/01/23 10:52:40;;;;;;;;;;;;;;;29.33;23.77;102378.19;5010745;28;1092;-73
2022/01/23 10:55:22;;;;;;;;;;;;;;;29.33;23.74;102383.78;5001423;28;1529;-74
2022/01/23 10:57:50;;;;;;;;;;;;;;;28.55;24.83;102382.94;5009127;28;1448;-74
2022/01/23 11:00:22;;;;;;;;;;;;;;;29.28;23.66;102377.97;5010954;28;1069;-73
2022/01/23 11:02:48;;;;;;;;;;;;;;;29.63;23.50;102377.84;5008971;28;1596;-73
2022/01/23 11:05:16;;;;;;;;;;;;;;;28.89;24.06;102386.81;5010640;28;1396;-73
2022/01/23 11:07:42;;;;;;;;;;;;;;;29.21;23.94;102389.97;5024427;23;3802;-76
2022/01/23 11:10:11;;;;;;;;;;;;;;;29.61;23.71;102382.78;4992058;28;1977;-76
2022/01/23 11:18:10;;;;;;;;;;;;;;;28.48;24.76;102381.19;5011748;28;1379;-77
2022/01/23 11:20:38;;;;;;;;;;;;;;;28.52;25.13;102386.13;5002341;28;1565;-77
2022/01/23 11:23:11;;;;;;;;;;;;;;;29.25;24.15;102392.31;4990933;28;1859;-77
2022/01/23 11:25:38;;;;;;;;;;;;;;;29.29;23.91;102396.44;4991807;28;1474;-76
2022/01/23 11:28:05;;;;;;;;;;;;;;;29.26;23.81;102391.28;4996970;28;1573;-75
2022/01/23 11:30:41;;;;;;;;;;;;;;;29.31;23.96;102383.13;4995993;28;1918;-75
2022/01/23 11:33:08;;;;;;;;;;;;;;;29.79;23.65;102383.00;4985374;28;1573;-74
2022/01/23 11:35:35;;;;;;;;;;;;;;;29.92;23.66;102389.72;4992400;28;723;-77
2022/01/23 11:38:02;;;;;;;;;;;;;;;30.51;23.33;102388.84;5007582;28;2107;-74
2022/01/23 11:40:38;;;;;;;;;;;;;;;29.19;23.99;102389.28;5004241;28;1487;-75
2022/01/23 11:54:03;;;;;;;;;;;;;;;28.08;25.78;102378.09;5011176;28;1881;-76
2022/01/23 11:56:36;;;;;;;;;;;;;;;29.03;24.76;102387.72;5009674;28;1845;-77
2022/01/23 11:59:33;;;;;;;;;;;;;;;30.20;23.47;102386.72;4986382;28;1318;-78
2022/01/23 12:02:25;;;;;;;;;;;;;;;29.73;23.42;102381.06;5003440;28;1493;-78
2022/01/23 12:05:10;;;;;;;;;;;;;;;29.61;23.95;102389.25;5013081;28;1395;-77
2022/01/23 12:07:37;;;;;;;;;;;;;;;30.07;23.41;102392.34;5014400;28;1313;-78
2022/01/23 12:10:13;;;;;;;;;;;;;;;29.39;24.12;102399.72;5008335;28;1982;-76
2022/01/23 12:12:42;;;;;;;;;;;;;;;28.77;25.14;102399.66;4995395;28;842;-77
2022/01/23 12:18:14;;;;;;;;;;;;;;;29.34;24.20;102391.09;5022623;28;1510;-78
2022/01/23 12:20:41;;;;;;;;;;;;;;;29.76;23.95;102391.84;4997452;28;967;-79
2022/01/23 12:23:08;;;;;;;;;;;;;;;28.32;25.11;102390.72;5001312;28;1518;-79
2022/01/23 12:25:40;;;;;;;;;;;;;;;28.03;25.90;102387.06;5018146;28;1501;-80
2022/01/23 12:28:11;;;;;;;;;;;;;;;27.95;25.76;102390.81;4997753;28;1347;-79
2022/01/23 12:30:38;;;;;;;;;;;;;;;28.01;26.13;102389.19;5014506;28;1960;-79
2022/01/23 12:33:17;;;;;;;;;;;;;;;29.36;24.38;102388.97;5018819;28;895;-78
2022/01/23 12:35:45;;;;;;;;;;;;;;;29.83;24.04;102386.25;5001396;28;1565;-80
2022/01/23 12:38:13;;;;;;;;;;;;;;;28.54;25.39;102389.59;4997169;28;1585;-78
2022/01/23 12:40:43;;;;;;;;;;;;;;;28.67;25.42;102391.63;4996641;28;1541;-75
2022/01/23 12:43:11;;;;;;;;;;;;;;;29.34;24.44;102386.38;4999806;28;1584;-79
2022/01/23 12:45:44;;;;;;;;;;;;;;;29.02;24.85;102386.03;4998290;28;1478;-74
2022/01/23 12:48:29;;;;;;;;;;;;;;;29.30;24.72;102387.00;5000213;28;1422;-77
2022/01/23 12:50:58;;;;;;;;;;;;;;;28.70;24.85;102379.19;5000806;28;1977;-77
2022/01/23 12:53:35;;;;;;;;;;;;;;;28.68;25.29;102370.16;5018368;28;817;-76
2022/01/23 12:56:02;;;;;;;;;;;;;;;28.69;25.33;102374.69;5014841;28;1524;-77
2022/01/23 12:58:28;;;;;;;;;;;;;;;28.77;24.72;102370.84;4999096;28;1405;-78
2022/01/23 13:00:55;;;;;;;;;;;;;;;29.33;24.13;102369.78;4998200;28;1505;-78
2022/01/23 13:03:24;;;;;;;;;;;;;;;29.26;24.10;102380.09;5007160;28;1561;-77
2022/01/23 13:05:51;;;;;;;;;;;;;;;29.58;24.25;102372.88;4997219;28;836;-77
2022/01/23 13:08:22;;;;;;;;;;;;;;;29.93;23.73;102381.13;4998912;28;1302;-77
2022/01/23 13:11:07;;;;;;;;;;;;;;;29.67;23.94;102377.19;4995637;28;1910;-76
2022/01/23 13:13:37;;;;;;;;;;;;;;;29.77;23.69;102382.38;5007150;28;1546;-78
2022/01/23 13:16:22;;;;;;;;;;;;;;;29.25;24.27;102381.13;5020406;28;1466;-79
2022/01/23 13:19:18;;;;;;;;;;;;;;;29.29;24.71;102390.84;5017539;28;1328;-79
2022/01/23 13:30:13;;;;;;;;;;;;;;;27.66;26.08;102401.06;5023058;28;1306;-81
2022/01/23 13:32:43;;;;;;;;;;;;;;;29.05;24.86;102404.31;5008208;28;1895;-79
2022/01/23 13:35:13;;;;;;;;;;;;;;;29.64;24.24;102400.00;4999826;28;1168;-80
2022/01/23 13:37:41;;;;;;;;;;;;;;;29.08;24.50;102398.28;5003517;28;1332;-79
2022/01/23 13:40:12;;;;;;;;;;;;;;;29.01;24.80;102401.06;5001085;28;730;-80
2022/01/23 13:42:57;;;;;;;;;;;;;;;27.98;26.05;102406.28;5005254;28;1409;-80
2022/01/23 13:48:56;;;;;;;;;;;;;;;28.97;24.79;102394.16;4978146;28;1323;-80
2022/01/23 13:51:35;;;;;;;;;;;;;;;28.34;25.84;102395.03;4945176;28;1919;-78
2022/01/23 13:57:32;;;;;;;;;;;;;;;27.59;26.33;102390.91;5012224;28;1616;-77
2022/01/23 13:59:54;;;;;;;;;;;;;;;26.35;27.94;102384.94;5018360;28;1504;-79
2022/01/23 14:02:22;;;;;;;;;;;;;;;28.52;25.56;102390.88;5004155;28;1574;-77
2022/01/23 14:04:49;;;;;;;;;;;;;;;26.18;27.24;102388.94;4997796;28;710;-79
2022/01/23 14:07:20;;;;;;;;;;;;;;;27.99;26.13;102400.50;4995665;28;1036;-79
2022/01/23 14:09:46;;;;;;;;;;;;;;;26.60;27.33;102406.09;4997417;28;1404;-79
2022/01/23 14:12:16;;;;;;;;;;;;;;;27.93;25.72;102403.22;4995619;28;1988;-78
2022/01/23 14:14:50;;;;;;;;;;;;;;;28.40;25.21;102408.16;4996390;28;1125;-79
2022/01/23 14:17:17;;;;;;;;;;;;;;;28.56;24.70;102408.94;4997092;28;986;-79
2022/01/23 14:19:56;;;;;;;;;;;;;;;26.84;27.09;102405.81;4997019;28;1394;-79
2022/01/23 14:22:26;;;;;;;;;;;;;;;28.11;25.59;102405.59;4994468;28;725;-78
2022/01/23 14:24:52;;;;;;;;;;;;;;;28.75;25.15;102401.78;4994953;28;799;-78
2022/01/23 14:27:21;;;;;;;;;;;;;;;29.62;23.71;102396.53;4995799;28;1286;-79
2022/01/23 14:29:50;;;;;;;;;;;;;;;29.50;23.42;102401.03;4993170;28;1332;-78
2022/01/23 14:32:21;;;;;;;;;;;;;;;29.64;23.68;102410.34;4992901;28;1982;-77
2022/01/23 14:34:47;;;;;;;;;;;;;;;29.58;23.68;102411.19;4995432;28;713;-79
2022/01/23 14:37:14;;;;;;;;;;;;;;;28.48;24.11;102403.50;4996585;28;1287;-78
2022/01/23 14:39:40;;;;;;;;;;;;;;;27.59;25.82;102404.84;4998706;28;1439;-78
2022/01/23 14:42:11;;;;;;;;;;;;;;;28.32;24.89;102399.09;5008752;28;1538;-77
2022/01/23 14:44:38;;;;;;;;;;;;;;;28.68;24.63;102400.88;5014316;28;694;-76
2022/01/23 14:47:05;;;;;;;;;;;;;;;27.46;25.94;102409.22;5014748;28;987;-77
2022/01/23 14:49:32;;;;;;;;;;;;;;;27.34;25.72;102419.09;5015708;28;1325;-76
2022/01/23 14:52:00;;;;;;;;;;;;;;;28.53;25.07;102407.41;5000064;28;1915;-78
2022/01/23 14:54:29;;;;;;;;;;;;;;;29.04;24.23;102402.56;4998954;28;1047;-78
2022/01/23 14:56:57;;;;;;;;;;;;;;;29.67;23.56;102405.16;4995510;28;983;-77
2022/01/23 14:59:24;;;;;;;;;;;;;;;28.17;24.79;102407.59;4994107;28;1323;-78
2022/01/23 15:01:51;;;;;;;;;;;;;;;29.14;23.62;102416.16;5006921;28;1475;-76
2022/01/23 15:04:20;;;;;;;;;;;;;;;29.12;23.50;102410.78;5007964;28;1530;-77
2022/01/23 15:06:48;;;;;;;;;;;;;;;28.78;23.96;102415.31;4980480;28;1391;-78
2022/01/23 15:09:16;;;;;;;;;;;;;;;28.92;23.85;102415.44;4973110;28;1335;-78
2022/01/23 15:11:42;;;;;;;;;;;;;;;29.41;23.21;102422.75;4992189;28;1918;-77
2022/01/23 15:14:10;;;;;;;;;;;;;;;29.01;24.03;102425.34;4991754;28;1047;-79
2022/01/23 15:16:37;;;;;;;;;;;;;;;29.57;23.20;102432.69;4992144;28;862;-76
2022/01/23 15:19:05;;;;;;;;;;;;;;;29.28;23.52;102425.50;4992274;28;1519;-77
2022/01/23 15:21:31;;;;;;;;;;;;;;;28.12;24.44;102441.66;4995698;28;1591;-75
2022/01/23 15:23:58;;;;;;;;;;;;;;;28.18;24.84;102442.78;4992507;28;1314;-77
2022/01/23 15:26:25;;;;;;;;;;;;;;;28.15;24.66;102445.97;5001908;28;1525;-75
2022/01/23 15:28:51;;;;;;;;;;;;;;;28.02;24.93;102449.50;5011272;28;1470;-77
2022/01/23 15:31:18;;;;;;;;;;;;;;;28.92;23.97;102444.22;5009982;28;1911;-78
2022/01/23 15:33:45;;;;;;;;;;;;;;;27.90;25.33;102457.53;4977344;28;1570;-77
2022/01/23 15:36:12;;;;;;;;;;;;;;;28.23;24.69;102449.50;4994819;28;1038;-77
2022/01/23 15:38:42;;;;;;;;;;;;;;;27.65;25.56;102457.91;4996357;28;1412;-78
2022/01/23 15:41:08;;;;;;;;;;;;;;;28.03;25.31;102452.13;4991398;28;805;-77
2022/01/23 15:43:34;;;;;;;;;;;;;;;28.59;24.54;102456.00;4990294;28;1408;-78